sensor_id;sensor_type;location;lat;lon;timestamp;P1;durP1;ratioP1;P2;durP2;ratioP2
64936;SDS011;51452;47.698;19.050;2023-04-25T00:02:20;2.58;;;1.85;;
64936;SDS011;51452;47.698;19.050;2023-04-25T00:04:45;2.58;;;1.88;;
64936;SDS011;51452;47.698;19.050;2023-04-25T00:07:11;2.40;;;1.80;;
64936;SDS011;51452;47.698;19.050;2023-04-25T00:09:37;3.40;;;1.85;;
64936;SDS011;51452;47.698;19.050;2023-04-25T00:12:03;4.95;;;1.67;;
64936;SDS011;51452;47.698;19.050;2023-04-25T00:14:28;2.58;;;1.80;;
64936;SDS011;51452;47.698;19.050;2023-04-25T00:16:54;2.35;;;1.55;;
64936;SDS011;51452;47.698;19.050;2023-04-25T00:19:20;2.47;;;1.60;;
64936;SDS011;51452;47.698;19.050;2023-04-25T00:21:45;2.00;;;1.50;;
64936;SDS011;51452;47.698;19.050;2023-04-25T00:24:11;3.42;;;1.70;;
64936;SDS011;51452;47.698;19.050;2023-04-25T00:26:37;4.10;;;1.52;;
64936;SDS011;51452;47.698;19.050;2023-04-25T00:29:02;2.22;;;1.42;;
64936;SDS011;51452;47.698;19.050;2023-04-25T00:31:28;2.80;;;2.13;;
64936;SDS011;51452;47.698;19.050;2023-04-25T00:33:54;2.03;;;1.48;;
64936;SDS011;51452;47.698;19.050;2023-04-25T00:36:19;3.40;;;1.60;;
64936;SDS011;51452;47.698;19.050;2023-04-25T00:38:45;2.05;;;1.60;;
64936;SDS011;51452;47.698;19.050;2023-04-25T00:41:10;3.25;;;1.80;;
64936;SDS011;51452;47.698;19.050;2023-04-25T00:43:36;3.08;;;1.90;;
64936;SDS011;51452;47.698;19.050;2023-04-25T00:46:02;2.33;;;1.80;;
64936;SDS011;51452;47.698;19.050;2023-04-25T00:48:28;2.38;;;1.80;;
64936;SDS011;51452;47.698;19.050;2023-04-25T00:50:54;3.80;;;2.25;;
64936;SDS011;51452;47.698;19.050;2023-04-25T00:53:22;4.10;;;1.95;;
64936;SDS011;51452;47.698;19.050;2023-04-25T00:55:49;2.90;;;2.13;;
64936;SDS011;51452;47.698;19.050;2023-04-25T00:58:18;4.30;;;2.17;;
64936;SDS011;51452;47.698;19.050;2023-04-25T01:00:47;4.80;;;2.17;;
64936;SDS011;51452;47.698;19.050;2023-04-25T01:03:15;3.00;;;2.05;;
64936;SDS011;51452;47.698;19.050;2023-04-25T01:05:42;4.18;;;2.38;;
64936;SDS011;51452;47.698;19.050;2023-04-25T01:08:08;3.38;;;2.38;;
64936;SDS011;51452;47.698;19.050;2023-04-25T01:10:35;3.88;;;2.28;;
64936;SDS011;51452;47.698;19.050;2023-04-25T01:13:01;4.85;;;2.50;;
64936;SDS011;51452;47.698;19.050;2023-04-25T01:15:26;3.55;;;2.40;;
64936;SDS011;51452;47.698;19.050;2023-04-25T01:17:51;4.97;;;2.55;;
64936;SDS011;51452;47.698;19.050;2023-04-25T01:20:18;3.58;;;2.55;;
64936;SDS011;51452;47.698;19.050;2023-04-25T01:22:47;4.32;;;2.50;;
64936;SDS011;51452;47.698;19.050;2023-04-25T01:25:12;3.70;;;2.58;;
64936;SDS011;51452;47.698;19.050;2023-04-25T01:27:38;3.15;;;2.35;;
64936;SDS011;51452;47.698;19.050;2023-04-25T01:30:04;3.50;;;2.80;;
64936;SDS011;51452;47.698;19.050;2023-04-25T01:32:30;3.13;;;2.33;;
64936;SDS011;51452;47.698;19.050;2023-04-25T01:35:03;4.47;;;2.75;;
64936;SDS011;51452;47.698;19.050;2023-04-25T01:37:34;3.33;;;2.50;;
64936;SDS011;51452;47.698;19.050;2023-04-25T01:40:00;5.55;;;3.10;;
64936;SDS011;51452;47.698;19.050;2023-04-25T01:42:26;3.88;;;2.70;;
64936;SDS011;51452;47.698;19.050;2023-04-25T01:44:52;6.05;;;3.15;;
64936;SDS011;51452;47.698;19.050;2023-04-25T01:47:18;4.85;;;2.53;;
64936;SDS011;51452;47.698;19.050;2023-04-25T01:49:43;3.70;;;2.85;;
64936;SDS011;51452;47.698;19.050;2023-04-25T01:52:09;3.92;;;3.08;;
64936;SDS011;51452;47.698;19.050;2023-04-25T01:54:34;4.70;;;2.88;;
64936;SDS011;51452;47.698;19.050;2023-04-25T01:56:59;5.03;;;2.95;;
64936;SDS011;51452;47.698;19.050;2023-04-25T01:59:25;3.20;;;2.70;;
64936;SDS011;51452;47.698;19.050;2023-04-25T02:01:50;3.47;;;2.75;;
64936;SDS011;51452;47.698;19.050;2023-04-25T02:04:16;3.60;;;2.35;;
64936;SDS011;51452;47.698;19.050;2023-04-25T02:06:41;6.22;;;2.50;;
64936;SDS011;51452;47.698;19.050;2023-04-25T02:09:06;3.88;;;2.67;;
64936;SDS011;51452;47.698;19.050;2023-04-25T02:11:32;3.53;;;2.40;;
64936;SDS011;51452;47.698;19.050;2023-04-25T02:13:57;4.38;;;2.45;;
64936;SDS011;51452;47.698;19.050;2023-04-25T02:16:23;3.50;;;2.63;;
64936;SDS011;51452;47.698;19.050;2023-04-25T02:18:48;4.03;;;2.47;;
64936;SDS011;51452;47.698;19.050;2023-04-25T02:21:13;3.40;;;2.70;;
64936;SDS011;51452;47.698;19.050;2023-04-25T02:23:40;3.60;;;2.50;;
64936;SDS011;51452;47.698;19.050;2023-04-25T02:26:05;3.50;;;2.50;;
64936;SDS011;51452;47.698;19.050;2023-04-25T02:28:31;3.90;;;2.30;;
64936;SDS011;51452;47.698;19.050;2023-04-25T02:30:56;3.97;;;2.38;;
64936;SDS011;51452;47.698;19.050;2023-04-25T02:33:21;4.00;;;2.20;;
64936;SDS011;51452;47.698;19.050;2023-04-25T02:35:47;19.80;;;2.47;;
64936;SDS011;51452;47.698;19.050;2023-04-25T02:38:12;2.90;;;1.80;;
64936;SDS011;51452;47.698;19.050;2023-04-25T02:40:38;2.20;;;1.45;;
64936;SDS011;51452;47.698;19.050;2023-04-25T02:43:03;2.63;;;1.65;;
64936;SDS011;51452;47.698;19.050;2023-04-25T02:45:29;2.30;;;1.75;;
64936;SDS011;51452;47.698;19.050;2023-04-25T02:47:54;5.03;;;2.03;;
64936;SDS011;51452;47.698;19.050;2023-04-25T02:50:19;3.17;;;1.77;;
64936;SDS011;51452;47.698;19.050;2023-04-25T02:52:45;2.75;;;1.80;;
64936;SDS011;51452;47.698;19.050;2023-04-25T02:55:10;2.45;;;1.65;;
64936;SDS011;51452;47.698;19.050;2023-04-25T02:57:37;2.90;;;2.13;;
64936;SDS011;51452;47.698;19.050;2023-04-25T03:00:03;3.67;;;2.58;;
64936;SDS011;51452;47.698;19.050;2023-04-25T03:02:30;3.42;;;2.25;;
64936;SDS011;51452;47.698;19.050;2023-04-25T03:04:55;2.83;;;2.35;;
64936;SDS011;51452;47.698;19.050;2023-04-25T03:07:20;3.08;;;2.53;;
64936;SDS011;51452;47.698;19.050;2023-04-25T03:09:46;3.75;;;2.90;;
64936;SDS011;51452;47.698;19.050;2023-04-25T03:12:11;3.30;;;2.40;;
64936;SDS011;51452;47.698;19.050;2023-04-25T03:14:37;3.92;;;2.30;;
64936;SDS011;51452;47.698;19.050;2023-04-25T03:17:02;4.10;;;2.42;;
64936;SDS011;51452;47.698;19.050;2023-04-25T03:19:27;3.28;;;2.53;;
64936;SDS011;51452;47.698;19.050;2023-04-25T03:21:53;2.92;;;2.28;;
64936;SDS011;51452;47.698;19.050;2023-04-25T03:24:18;3.63;;;2.35;;
64936;SDS011;51452;47.698;19.050;2023-04-25T03:26:44;3.15;;;2.13;;
64936;SDS011;51452;47.698;19.050;2023-04-25T03:29:09;5.15;;;1.90;;
64936;SDS011;51452;47.698;19.050;2023-04-25T03:31:34;3.13;;;1.98;;
64936;SDS011;51452;47.698;19.050;2023-04-25T03:34:00;2.80;;;2.03;;
64936;SDS011;51452;47.698;19.050;2023-04-25T03:36:25;2.60;;;2.00;;
64936;SDS011;51452;47.698;19.050;2023-04-25T03:38:50;3.65;;;2.13;;
64936;SDS011;51452;47.698;19.050;2023-04-25T03:41:16;3.20;;;2.05;;
64936;SDS011;51452;47.698;19.050;2023-04-25T03:43:41;2.77;;;1.77;;
64936;SDS011;51452;47.698;19.050;2023-04-25T03:46:06;3.10;;;1.85;;
64936;SDS011;51452;47.698;19.050;2023-04-25T03:48:32;2.42;;;1.80;;
64936;SDS011;51452;47.698;19.050;2023-04-25T03:50:57;4.75;;;1.75;;
64936;SDS011;51452;47.698;19.050;2023-04-25T03:53:23;2.30;;;1.73;;
64936;SDS011;51452;47.698;19.050;2023-04-25T03:55:48;3.55;;;2.33;;
64936;SDS011;51452;47.698;19.050;2023-04-25T03:58:13;3.20;;;2.00;;
64936;SDS011;51452;47.698;19.050;2023-04-25T04:00:39;3.03;;;2.20;;
64936;SDS011;51452;47.698;19.050;2023-04-25T04:03:04;4.00;;;2.20;;
64936;SDS011;51452;47.698;19.050;2023-04-25T04:05:30;3.47;;;2.20;;
64936;SDS011;51452;47.698;19.050;2023-04-25T04:07:56;3.60;;;2.10;;
64936;SDS011;51452;47.698;19.050;2023-04-25T04:10:21;3.38;;;1.88;;
64936;SDS011;51452;47.698;19.050;2023-04-25T04:12:47;4.50;;;1.90;;
64936;SDS011;51452;47.698;19.050;2023-04-25T04:15:12;4.05;;;1.88;;
64936;SDS011;51452;47.698;19.050;2023-04-25T04:17:38;2.33;;;1.92;;
64936;SDS011;51452;47.698;19.050;2023-04-25T04:20:03;2.58;;;2.15;;
64936;SDS011;51452;47.698;19.050;2023-04-25T04:22:29;2.47;;;1.92;;
64936;SDS011;51452;47.698;19.050;2023-04-25T04:24:54;2.60;;;2.10;;
64936;SDS011;51452;47.698;19.050;2023-04-25T04:27:22;2.87;;;2.33;;
64936;SDS011;51452;47.698;19.050;2023-04-25T04:29:47;3.92;;;2.33;;
64936;SDS011;51452;47.698;19.050;2023-04-25T04:32:13;3.35;;;2.55;;
64936;SDS011;51452;47.698;19.050;2023-04-25T04:34:39;4.57;;;2.58;;
64936;SDS011;51452;47.698;19.050;2023-04-25T04:37:06;2.40;;;2.00;;
64936;SDS011;51452;47.698;19.050;2023-04-25T04:39:32;3.22;;;2.30;;
64936;SDS011;51452;47.698;19.050;2023-04-25T04:42:00;4.27;;;2.53;;
64936;SDS011;51452;47.698;19.050;2023-04-25T04:44:26;3.30;;;2.38;;
64936;SDS011;51452;47.698;19.050;2023-04-25T04:46:53;3.50;;;2.30;;
64936;SDS011;51452;47.698;19.050;2023-04-25T04:49:19;2.60;;;2.00;;
64936;SDS011;51452;47.698;19.050;2023-04-25T04:51:44;3.37;;;2.27;;
64936;SDS011;51452;47.698;19.050;2023-04-25T04:54:09;3.33;;;2.30;;
64936;SDS011;51452;47.698;19.050;2023-04-25T04:56:35;3.10;;;2.47;;
64936;SDS011;51452;47.698;19.050;2023-04-25T04:59:00;3.55;;;2.75;;
64936;SDS011;51452;47.698;19.050;2023-04-25T05:01:27;3.08;;;2.40;;
64936;SDS011;51452;47.698;19.050;2023-04-25T05:03:54;3.80;;;2.80;;
64936;SDS011;51452;47.698;19.050;2023-04-25T05:06:24;3.40;;;2.40;;
64936;SDS011;51452;47.698;19.050;2023-04-25T05:08:50;4.15;;;2.63;;
64936;SDS011;51452;47.698;19.050;2023-04-25T05:11:16;3.57;;;2.57;;
64936;SDS011;51452;47.698;19.050;2023-04-25T05:13:41;3.67;;;2.70;;
64936;SDS011;51452;47.698;19.050;2023-04-25T05:16:06;3.40;;;2.50;;
64936;SDS011;51452;47.698;19.050;2023-04-25T05:18:32;3.80;;;2.50;;
64936;SDS011;51452;47.698;19.050;2023-04-25T05:20:57;3.25;;;2.47;;
64936;SDS011;51452;47.698;19.050;2023-04-25T05:23:22;3.97;;;2.43;;
64936;SDS011;51452;47.698;19.050;2023-04-25T05:25:48;3.80;;;2.50;;
64936;SDS011;51452;47.698;19.050;2023-04-25T05:28:13;3.03;;;2.37;;
64936;SDS011;51452;47.698;19.050;2023-04-25T05:30:39;3.00;;;2.10;;
64936;SDS011;51452;47.698;19.050;2023-04-25T05:33:05;4.18;;;2.55;;
64936;SDS011;51452;47.698;19.050;2023-04-25T05:35:49;2.87;;;1.80;;
64936;SDS011;51452;47.698;19.050;2023-04-25T05:38:15;2.60;;;1.95;;
64936;SDS011;51452;47.698;19.050;2023-04-25T05:40:40;2.58;;;2.08;;
64936;SDS011;51452;47.698;19.050;2023-04-25T05:43:05;2.50;;;2.00;;
64936;SDS011;51452;47.698;19.050;2023-04-25T05:45:31;4.50;;;2.20;;
64936;SDS011;51452;47.698;19.050;2023-04-25T05:47:56;2.60;;;2.13;;
64936;SDS011;51452;47.698;19.050;2023-04-25T05:50:21;3.28;;;1.90;;
64936;SDS011;51452;47.698;19.050;2023-04-25T05:52:47;2.40;;;1.93;;
64936;SDS011;51452;47.698;19.050;2023-04-25T05:55:12;2.90;;;2.10;;
64936;SDS011;51452;47.698;19.050;2023-04-25T05:57:38;2.57;;;1.97;;
64936;SDS011;51452;47.698;19.050;2023-04-25T06:00:06;2.90;;;2.10;;
64936;SDS011;51452;47.698;19.050;2023-04-25T06:02:34;3.73;;;2.00;;
64936;SDS011;51452;47.698;19.050;2023-04-25T06:04:59;6.97;;;2.60;;
64936;SDS011;51452;47.698;19.050;2023-04-25T06:07:24;6.00;;;2.80;;
64936;SDS011;51452;47.698;19.050;2023-04-25T06:09:50;4.30;;;2.73;;
64936;SDS011;51452;47.698;19.050;2023-04-25T06:12:16;5.17;;;3.30;;
64936;SDS011;51452;47.698;19.050;2023-04-25T06:14:41;6.13;;;3.83;;
64936;SDS011;51452;47.698;19.050;2023-04-25T06:17:06;8.80;;;3.83;;
64936;SDS011;51452;47.698;19.050;2023-04-25T06:19:33;10.57;;;4.80;;
64936;SDS011;51452;47.698;19.050;2023-04-25T06:22:00;8.50;;;5.13;;
64936;SDS011;51452;47.698;19.050;2023-04-25T06:24:26;8.93;;;5.37;;
64936;SDS011;51452;47.698;19.050;2023-04-25T06:26:51;7.70;;;5.40;;
64936;SDS011;51452;47.698;19.050;2023-04-25T06:29:17;7.10;;;4.87;;
64936;SDS011;51452;47.698;19.050;2023-04-25T06:31:43;8.50;;;5.47;;
64936;SDS011;51452;47.698;19.050;2023-04-25T06:34:08;9.33;;;5.30;;
64936;SDS011;51452;47.698;19.050;2023-04-25T06:36:34;10.10;;;4.97;;
64936;SDS011;51452;47.698;19.050;2023-04-25T06:38:59;10.03;;;5.77;;
64936;SDS011;51452;47.698;19.050;2023-04-25T06:41:25;7.33;;;5.63;;
64936;SDS011;51452;47.698;19.050;2023-04-25T06:43:50;8.60;;;5.67;;
64936;SDS011;51452;47.698;19.050;2023-04-25T06:46:15;10.13;;;6.53;;
64936;SDS011;51452;47.698;19.050;2023-04-25T06:48:41;9.43;;;6.83;;
64936;SDS011;51452;47.698;19.050;2023-04-25T06:51:06;9.23;;;6.47;;
64936;SDS011;51452;47.698;19.050;2023-04-25T06:53:32;8.57;;;6.50;;
64936;SDS011;51452;47.698;19.050;2023-04-25T06:55:57;11.77;;;7.97;;
64936;SDS011;51452;47.698;19.050;2023-04-25T06:58:22;12.13;;;7.90;;
64936;SDS011;51452;47.698;19.050;2023-04-25T07:00:48;16.07;;;8.83;;
64936;SDS011;51452;47.698;19.050;2023-04-25T07:03:13;12.97;;;8.50;;
64936;SDS011;51452;47.698;19.050;2023-04-25T07:05:38;15.70;;;9.07;;
64936;SDS011;51452;47.698;19.050;2023-04-25T07:08:04;15.50;;;8.83;;
64936;SDS011;51452;47.698;19.050;2023-04-25T07:10:29;17.20;;;9.10;;
64936;SDS011;51452;47.698;19.050;2023-04-25T07:12:55;13.53;;;8.40;;
64936;SDS011;51452;47.698;19.050;2023-04-25T07:15:20;17.03;;;9.30;;
64936;SDS011;51452;47.698;19.050;2023-04-25T07:17:46;14.67;;;8.97;;
64936;SDS011;51452;47.698;19.050;2023-04-25T07:20:11;16.13;;;9.87;;
64936;SDS011;51452;47.698;19.050;2023-04-25T07:22:37;16.27;;;9.53;;
64936;SDS011;51452;47.698;19.050;2023-04-25T07:25:02;18.20;;;10.20;;
64936;SDS011;51452;47.698;19.050;2023-04-25T07:27:29;17.27;;;10.03;;
64936;SDS011;51452;47.698;19.050;2023-04-25T07:29:54;15.63;;;9.10;;
64936;SDS011;51452;47.698;19.050;2023-04-25T07:32:20;17.57;;;10.07;;
64936;SDS011;51452;47.698;19.050;2023-04-25T07:34:45;17.80;;;10.13;;
64936;SDS011;51452;47.698;19.050;2023-04-25T07:37:10;13.10;;;9.20;;
64936;SDS011;51452;47.698;19.050;2023-04-25T07:39:36;16.83;;;9.40;;
64936;SDS011;51452;47.698;19.050;2023-04-25T07:42:02;17.48;;;9.88;;
64936;SDS011;51452;47.698;19.050;2023-04-25T07:44:28;16.38;;;9.82;;
64936;SDS011;51452;47.698;19.050;2023-04-25T07:46:55;16.33;;;9.13;;
64936;SDS011;51452;47.698;19.050;2023-04-25T07:49:21;15.65;;;9.73;;
64936;SDS011;51452;47.698;19.050;2023-04-25T07:51:46;15.57;;;9.20;;
64936;SDS011;51452;47.698;19.050;2023-04-25T07:54:15;16.08;;;8.90;;
64936;SDS011;51452;47.698;19.050;2023-04-25T07:56:40;14.80;;;8.93;;
64936;SDS011;51452;47.698;19.050;2023-04-25T07:59:06;16.40;;;9.77;;
64936;SDS011;51452;47.698;19.050;2023-04-25T08:01:33;12.80;;;8.90;;
64936;SDS011;51452;47.698;19.050;2023-04-25T08:03:59;15.23;;;9.70;;
64936;SDS011;51452;47.698;19.050;2023-04-25T08:06:24;15.50;;;9.48;;
64936;SDS011;51452;47.698;19.050;2023-04-25T08:08:50;12.18;;;8.23;;
64936;SDS011;51452;47.698;19.050;2023-04-25T08:11:16;12.80;;;8.35;;
64936;SDS011;51452;47.698;19.050;2023-04-25T08:13:41;11.13;;;7.65;;
64936;SDS011;51452;47.698;19.050;2023-04-25T08:16:06;10.85;;;7.90;;
64936;SDS011;51452;47.698;19.050;2023-04-25T08:18:32;9.45;;;7.10;;
64936;SDS011;51452;47.698;19.050;2023-04-25T08:20:57;9.88;;;7.43;;
64936;SDS011;51452;47.698;19.050;2023-04-25T08:23:22;9.63;;;6.47;;
64936;SDS011;51452;47.698;19.050;2023-04-25T08:25:48;7.63;;;6.22;;
64936;SDS011;51452;47.698;19.050;2023-04-25T08:28:13;7.90;;;6.50;;
64936;SDS011;51452;47.698;19.050;2023-04-25T08:30:40;9.25;;;5.72;;
64936;SDS011;51452;47.698;19.050;2023-04-25T08:33:05;8.57;;;5.88;;
64936;SDS011;51452;47.698;19.050;2023-04-25T08:35:31;9.73;;;6.05;;
64936;SDS011;51452;47.698;19.050;2023-04-25T08:37:58;6.50;;;5.10;;
64936;SDS011;51452;47.698;19.050;2023-04-25T08:40:23;5.93;;;5.10;;
64936;SDS011;51452;47.698;19.050;2023-04-25T08:42:53;5.93;;;4.70;;
64936;SDS011;51452;47.698;19.050;2023-04-25T08:45:20;6.43;;;4.85;;
64936;SDS011;51452;47.698;19.050;2023-04-25T08:47:46;7.15;;;4.97;;
64936;SDS011;51452;47.698;19.050;2023-04-25T08:50:13;7.13;;;4.88;;
64936;SDS011;51452;47.698;19.050;2023-04-25T08:52:45;5.10;;;4.28;;
64936;SDS011;51452;47.698;19.050;2023-04-25T08:55:13;6.15;;;4.55;;
64936;SDS011;51452;47.698;19.050;2023-04-25T08:57:39;5.75;;;4.28;;
64936;SDS011;51452;47.698;19.050;2023-04-25T09:00:08;5.85;;;4.60;;
64936;SDS011;51452;47.698;19.050;2023-04-25T09:02:39;5.60;;;4.60;;
64936;SDS011;51452;47.698;19.050;2023-04-25T09:05:05;6.43;;;4.70;;
64936;SDS011;51452;47.698;19.050;2023-04-25T09:07:34;4.82;;;4.13;;
64936;SDS011;51452;47.698;19.050;2023-04-25T09:10:00;5.57;;;3.85;;
64936;SDS011;51452;47.698;19.050;2023-04-25T09:12:28;5.40;;;4.53;;
64936;SDS011;51452;47.698;19.050;2023-04-25T09:17:30;4.82;;;4.32;;
64936;SDS011;51452;47.698;19.050;2023-04-25T09:20:05;5.70;;;4.70;;
64936;SDS011;51452;47.698;19.050;2023-04-25T09:22:37;5.45;;;4.45;;
64936;SDS011;51452;47.698;19.050;2023-04-25T09:25:10;4.85;;;3.70;;
64936;SDS011;51452;47.698;19.050;2023-04-25T09:27:36;5.20;;;3.53;;
64936;SDS011;51452;47.698;19.050;2023-04-25T09:30:15;3.80;;;3.30;;
64936;SDS011;51452;47.698;19.050;2023-04-25T09:32:42;4.15;;;2.90;;
64936;SDS011;51452;47.698;19.050;2023-04-25T09:35:08;2.88;;;2.55;;
64936;SDS011;51452;47.698;19.050;2023-04-25T09:37:34;3.13;;;2.58;;
64936;SDS011;51452;47.698;19.050;2023-04-25T09:40:00;2.83;;;2.47;;
64936;SDS011;51452;47.698;19.050;2023-04-25T09:42:30;2.97;;;2.35;;
64936;SDS011;51452;47.698;19.050;2023-04-25T09:44:57;5.40;;;2.38;;
64936;SDS011;51452;47.698;19.050;2023-04-25T09:47:23;3.80;;;2.30;;
64936;SDS011;51452;47.698;19.050;2023-04-25T09:49:51;3.60;;;2.45;;
64936;SDS011;51452;47.698;19.050;2023-04-25T09:52:21;3.22;;;2.35;;
64936;SDS011;51452;47.698;19.050;2023-04-25T09:54:50;3.10;;;2.63;;
64936;SDS011;51452;47.698;19.050;2023-04-25T09:59:49;3.60;;;2.70;;
64936;SDS011;51452;47.698;19.050;2023-04-25T10:02:17;2.85;;;2.47;;
64936;SDS011;51452;47.698;19.050;2023-04-25T10:07:18;2.30;;;2.08;;
64936;SDS011;51452;47.698;19.050;2023-04-25T10:09:47;2.58;;;1.88;;
64936;SDS011;51452;47.698;19.050;2023-04-25T10:12:15;3.28;;;1.80;;
64936;SDS011;51452;47.698;19.050;2023-04-25T10:14:41;3.13;;;1.70;;
64936;SDS011;51452;47.698;19.050;2023-04-25T10:17:08;2.00;;;1.50;;
64936;SDS011;51452;47.698;19.050;2023-04-25T10:19:36;1.95;;;1.60;;
64936;SDS011;51452;47.698;19.050;2023-04-25T10:22:11;2.03;;;1.42;;
64936;SDS011;51452;47.698;19.050;2023-04-25T10:24:39;2.13;;;1.58;;
64936;SDS011;51452;47.698;19.050;2023-04-25T10:27:05;1.90;;;1.38;;
64936;SDS011;51452;47.698;19.050;2023-04-25T10:29:31;2.88;;;1.20;;
64936;SDS011;51452;47.698;19.050;2023-04-25T10:31:57;2.65;;;1.35;;
64936;SDS011;51452;47.698;19.050;2023-04-25T10:34:24;1.70;;;1.30;;
64936;SDS011;51452;47.698;19.050;2023-04-25T10:37:02;2.03;;;1.40;;
64936;SDS011;51452;47.698;19.050;2023-04-25T10:39:28;2.70;;;1.30;;
64936;SDS011;51452;47.698;19.050;2023-04-25T10:44:23;1.45;;;1.20;;
64936;SDS011;51452;47.698;19.050;2023-04-25T10:46:52;1.63;;;1.00;;
64936;SDS011;51452;47.698;19.050;2023-04-25T10:52:10;1.50;;;1.00;;
64936;SDS011;51452;47.698;19.050;2023-04-25T10:54:39;1.10;;;0.95;;
64936;SDS011;51452;47.698;19.050;2023-04-25T10:57:08;2.92;;;0.90;;
64936;SDS011;51452;47.698;19.050;2023-04-25T10:59:51;1.38;;;0.90;;
64936;SDS011;51452;47.698;19.050;2023-04-25T11:02:17;0.82;;;0.70;;
64936;SDS011;51452;47.698;19.050;2023-04-25T11:04:42;2.50;;;1.10;;
64936;SDS011;51452;47.698;19.050;2023-04-25T11:09:35;0.60;;;0.60;;
64936;SDS011;51452;47.698;19.050;2023-04-25T11:12:03;2.42;;;0.98;;
64936;SDS011;51452;47.698;19.050;2023-04-25T11:14:29;1.73;;;0.80;;
64936;SDS011;51452;47.698;19.050;2023-04-25T11:16:56;0.63;;;0.55;;
64936;SDS011;51452;47.698;19.050;2023-04-25T11:19:22;1.20;;;0.70;;
64936;SDS011;51452;47.698;19.050;2023-04-25T11:21:49;0.80;;;0.60;;
64936;SDS011;51452;47.698;19.050;2023-04-25T11:24:15;1.23;;;0.70;;
64936;SDS011;51452;47.698;19.050;2023-04-25T11:26:42;1.20;;;0.60;;
64936;SDS011;51452;47.698;19.050;2023-04-25T11:29:08;0.68;;;0.55;;
64936;SDS011;51452;47.698;19.050;2023-04-25T11:31:33;0.80;;;0.70;;
64936;SDS011;51452;47.698;19.050;2023-04-25T11:33:59;1.10;;;0.50;;
64936;SDS011;51452;47.698;19.050;2023-04-25T11:36:25;0.82;;;0.60;;
64936;SDS011;51452;47.698;19.050;2023-04-25T11:38:51;0.50;;;0.50;;
64936;SDS011;51452;47.698;19.050;2023-04-25T11:41:18;0.68;;;0.47;;
64936;SDS011;51452;47.698;19.050;2023-04-25T11:43:47;0.93;;;0.80;;
64936;SDS011;51452;47.698;19.050;2023-04-25T11:46:13;0.65;;;0.45;;
64936;SDS011;51452;47.698;19.050;2023-04-25T11:48:40;2.80;;;0.60;;
64936;SDS011;51452;47.698;19.050;2023-04-25T11:51:06;0.77;;;0.50;;
64936;SDS011;51452;47.698;19.050;2023-04-25T11:53:32;1.00;;;0.55;;
64936;SDS011;51452;47.698;19.050;2023-04-25T11:55:57;1.52;;;0.50;;
64936;SDS011;51452;47.698;19.050;2023-04-25T11:58:23;0.60;;;0.45;;
64936;SDS011;51452;47.698;19.050;2023-04-25T12:00:50;3.28;;;0.50;;
64936;SDS011;51452;47.698;19.050;2023-04-25T12:03:15;1.20;;;0.60;;
64936;SDS011;51452;47.698;19.050;2023-04-25T12:05:43;2.17;;;0.50;;
64936;SDS011;51452;47.698;19.050;2023-04-25T12:08:11;0.85;;;0.60;;
64936;SDS011;51452;47.698;19.050;2023-04-25T12:10:37;0.55;;;0.50;;
64936;SDS011;51452;47.698;19.050;2023-04-25T12:13:19;0.73;;;0.52;;
64936;SDS011;51452;47.698;19.050;2023-04-25T12:15:49;1.00;;;0.70;;
64936;SDS011;51452;47.698;19.050;2023-04-25T12:18:15;1.52;;;0.88;;
64936;SDS011;51452;47.698;19.050;2023-04-25T12:20:44;1.70;;;0.90;;
64936;SDS011;51452;47.698;19.050;2023-04-25T12:23:09;1.17;;;0.80;;
64936;SDS011;51452;47.698;19.050;2023-04-25T12:28:21;1.90;;;0.73;;
64936;SDS011;51452;47.698;19.050;2023-04-25T12:31:05;1.35;;;0.90;;
64936;SDS011;51452;47.698;19.050;2023-04-25T12:33:32;1.20;;;0.70;;
64936;SDS011;51452;47.698;19.050;2023-04-25T12:35:58;1.00;;;0.90;;
64936;SDS011;51452;47.698;19.050;2023-04-25T12:38:28;2.03;;;1.00;;
64936;SDS011;51452;47.698;19.050;2023-04-25T12:40:56;1.30;;;0.93;;
64936;SDS011;51452;47.698;19.050;2023-04-25T12:43:23;1.60;;;0.98;;
64936;SDS011;51452;47.698;19.050;2023-04-25T12:45:49;1.30;;;0.90;;
64936;SDS011;51452;47.698;19.050;2023-04-25T12:48:15;1.70;;;0.90;;
64936;SDS011;51452;47.698;19.050;2023-04-25T12:50:41;1.35;;;0.90;;
64936;SDS011;51452;47.698;19.050;2023-04-25T12:53:07;2.05;;;0.75;;
64936;SDS011;51452;47.698;19.050;2023-04-25T12:55:32;1.40;;;0.90;;
64936;SDS011;51452;47.698;19.050;2023-04-25T12:57:58;1.38;;;0.80;;
64936;SDS011;51452;47.698;19.050;2023-04-25T13:00:23;0.90;;;0.75;;
64936;SDS011;51452;47.698;19.050;2023-04-25T13:02:49;1.67;;;1.02;;
64936;SDS011;51452;47.698;19.050;2023-04-25T13:05:15;1.45;;;0.82;;
64936;SDS011;51452;47.698;19.050;2023-04-25T13:07:40;2.38;;;1.23;;
64936;SDS011;51452;47.698;19.050;2023-04-25T13:10:06;1.52;;;0.95;;
64936;SDS011;51452;47.698;19.050;2023-04-25T13:12:32;1.30;;;1.00;;
64936;SDS011;51452;47.698;19.050;2023-04-25T13:14:57;2.90;;;1.20;;
64936;SDS011;51452;47.698;19.050;2023-04-25T13:17:23;1.60;;;1.00;;
64936;SDS011;51452;47.698;19.050;2023-04-25T13:19:48;4.38;;;1.10;;
64936;SDS011;51452;47.698;19.050;2023-04-25T13:22:13;1.63;;;1.10;;
64936;SDS011;51452;47.698;19.050;2023-04-25T13:24:41;4.30;;;1.00;;
64936;SDS011;51452;47.698;19.050;2023-04-25T13:27:07;1.27;;;0.93;;
64936;SDS011;51452;47.698;19.050;2023-04-25T13:29:32;1.63;;;0.90;;
64936;SDS011;51452;47.698;19.050;2023-04-25T13:32:00;1.52;;;1.00;;
64936;SDS011;51452;47.698;19.050;2023-04-25T13:34:26;2.47;;;1.13;;
64936;SDS011;51452;47.698;19.050;2023-04-25T13:36:51;1.67;;;1.00;;
64936;SDS011;51452;47.698;19.050;2023-04-25T13:39:17;2.38;;;1.10;;
64936;SDS011;51452;47.698;19.050;2023-04-25T13:41:42;1.02;;;0.80;;
64936;SDS011;51452;47.698;19.050;2023-04-25T13:44:07;1.50;;;0.90;;
64936;SDS011;51452;47.698;19.050;2023-04-25T13:46:33;1.95;;;1.00;;
64936;SDS011;51452;47.698;19.050;2023-04-25T13:48:59;2.50;;;1.00;;
64936;SDS011;51452;47.698;19.050;2023-04-25T13:51:24;1.83;;;0.90;;
64936;SDS011;51452;47.698;19.050;2023-04-25T13:53:50;1.73;;;1.00;;
64936;SDS011;51452;47.698;19.050;2023-04-25T13:56:16;2.08;;;1.17;;
64936;SDS011;51452;47.698;19.050;2023-04-25T13:58:41;2.42;;;1.08;;
64936;SDS011;51452;47.698;19.050;2023-04-25T14:01:07;1.35;;;0.77;;
64936;SDS011;51452;47.698;19.050;2023-04-25T14:03:32;1.48;;;1.05;;
64936;SDS011;51452;47.698;19.050;2023-04-25T14:05:57;1.23;;;0.88;;
64936;SDS011;51452;47.698;19.050;2023-04-25T14:08:23;1.95;;;1.00;;
64936;SDS011;51452;47.698;19.050;2023-04-25T14:10:48;1.63;;;0.80;;
64936;SDS011;51452;47.698;19.050;2023-04-25T14:13:14;1.27;;;1.00;;
64936;SDS011;51452;47.698;19.050;2023-04-25T14:15:40;2.22;;;0.90;;
64936;SDS011;51452;47.698;19.050;2023-04-25T14:18:05;1.15;;;0.90;;
64936;SDS011;51452;47.698;19.050;2023-04-25T14:20:30;1.70;;;0.90;;
64936;SDS011;51452;47.698;19.050;2023-04-25T14:22:56;1.60;;;0.90;;
64936;SDS011;51452;47.698;19.050;2023-04-25T14:25:23;1.42;;;0.95;;
64936;SDS011;51452;47.698;19.050;2023-04-25T14:27:49;1.60;;;1.00;;
64936;SDS011;51452;47.698;19.050;2023-04-25T14:30:18;1.42;;;1.00;;
64936;SDS011;51452;47.698;19.050;2023-04-25T14:32:44;1.27;;;0.95;;
64936;SDS011;51452;47.698;19.050;2023-04-25T14:35:10;1.30;;;1.00;;
64936;SDS011;51452;47.698;19.050;2023-04-25T14:37:36;0.95;;;0.73;;
64936;SDS011;51452;47.698;19.050;2023-04-25T14:40:01;1.42;;;1.00;;
64936;SDS011;51452;47.698;19.050;2023-04-25T14:42:27;1.77;;;0.90;;
64936;SDS011;51452;47.698;19.050;2023-04-25T14:44:52;2.50;;;1.10;;
64936;SDS011;51452;47.698;19.050;2023-04-25T14:47:18;3.53;;;0.90;;